Ojai, CA

9:52 AM PST on February 14, 2016 (GMT -0800)
Fairview Road | | Change Station
CLOSE
Current Station
Personal Weather Station
Location: Ojai, CA
Elevation: 1056 ft
Nearby Weather Stations
Active Advisory: Wind Advisory

Elev 1056 ft 34.46 °N, 119.26 °W | Updated 1 minute ago

Clear
Clear
70.7 °F
Feels Like 74 °F
N
0.0
Wind Variable Wind from ESE

Today
High -- | Low -- °F
--% Chance of Precip.
Yesterday
High -- | Low -- °F
Precip. -- in
Pressure 30.05 in
Visibility 10.0 miles
Clouds Clear
Heat Index 74 °F
Dew Point 25 °F
Humidity 18%
Rainfall 0.00 in
Snow Depth Not available.
6:43 AM 5:39 PM
Waxing Crescent, 43% visible
METAR KOXR 141651Z 04005KT 10SM CLR 21/04 A3005 RMK AO2 SLP175 T02060039
Pressure 30.05 in
Visibility 10.0 miles
Clouds Clear
Heat Index 74 °F
Dew Point 25 °F
Humidity 18%
Rainfall 0.00 in
Snow Depth Not available.
6:43 AM 5:39 PM
Waxing Crescent, 43% visible
METAR KOXR 141651Z 04005KT 10SM CLR 21/04 A3005 RMK AO2 SLP175 T02060039

10-Day Weather Forecast

Almanac

Astronomy

Feb. 14, 2016 Rise Set
Actual Time
Civil Twilight
Nautical Twilight
Astronomical Twilight
Moon
Length of Visible Light
Length of Day
Tomorrow will be .
, % of the Moon is Illuminated

Today's Extremes

State Highs State Lows

Community

WunderPhotos

Upload Photos

1,892,860 photos uploaded!

WunderBlog® & News

Nearby

Air Quality

  Air Quality AQ Index Pollutant
Not available.

Snow Depth

Station Depth Elevation

Earthquake Activity

City Distance Mag. Time & Date
Minimum magnitude displayed is 2.5.

Coastal Water Temperatures

Place Temperature

Stations

Nearby Weather Stations

Station Location Temp. Windchill Dew Point Humidity Wind Precip. Elev Updated Type
                   

Watches & Warnings

Wind Advisory
Issued: 8:49 AM PST Feb. 14, 2016 – National Weather Service

... Wind Advisory remains in effect until 3 PM PST Monday...

* winds and timing... .there will be areas of north winds 15 to
25 mph with gusts to 40 mph today. Winds will be strongest
across eastern sections. Areas of northeast winds 20 to 30 mph
with gusts to 45 mph will become widespread tonight and
persist into Monday afternoon. There will be isolated gusts to
55 mph Monday morning.

* Impacts... major roadways that could be affected include
highways 23... 101 and 118.

Precautionary/preparedness actions...

When driving... use extra caution. Be prepared for sudden gusty
cross winds.